createdAt,value
2018-02-20T00:01:34.720Z,4.20
2018-02-20T00:04:02.957Z,4.30
2018-02-20T00:06:31.187Z,4.20
2018-02-20T00:09:00.348Z,4.20
2018-02-20T00:11:28.584Z,4.20
2018-02-20T00:13:56.820Z,4.10
2018-02-20T00:16:26.996Z,4.10
2018-02-20T00:18:55.240Z,4.00
2018-02-20T00:23:54.244Z,4.00
2018-02-20T00:28:51.940Z,4.00
2018-02-20T00:31:21.027Z,4.00
2018-02-20T00:33:49.257Z,3.90
2018-02-20T00:36:17.492Z,3.90
2018-02-20T00:38:50.732Z,3.90
2018-02-20T00:41:19.728Z,3.90
2018-02-20T00:43:48.352Z,3.90
2018-02-20T00:46:16.956Z,3.80
2018-02-20T00:48:45.951Z,3.80
2018-02-20T00:51:14.184Z,3.80
2018-02-20T00:53:42.988Z,3.80
2018-02-20T00:56:12.356Z,3.70
2018-02-20T00:58:40.605Z,3.70
2018-02-20T01:01:09.772Z,3.70
2018-02-20T01:03:39.524Z,3.70
2018-02-20T01:06:07.777Z,3.70
2018-02-20T01:08:37.525Z,3.70
2018-02-20T01:11:05.794Z,3.70
2018-02-20T01:13:35.171Z,3.60
2018-02-20T01:16:03.748Z,3.60
2018-02-20T01:18:33.486Z,3.50
2018-02-20T01:21:02.489Z,3.50
2018-02-20T01:23:32.444Z,3.50
2018-02-20T01:28:30.140Z,3.40
2018-02-20T01:30:58.631Z,3.40
2018-02-20T01:33:27.996Z,3.40
2018-02-20T01:35:57.005Z,3.40
2018-02-20T01:38:25.393Z,3.40
2018-02-20T01:40:55.218Z,3.30
2018-02-20T01:43:24.593Z,3.30
2018-02-20T01:45:54.796Z,3.30
2018-02-20T01:48:23.020Z,3.30
2018-02-20T01:51:03.272Z,3.20
2018-02-20T01:53:31.505Z,3.20
2018-02-20T01:55:59.740Z,3.20
2018-02-20T02:05:57.741Z,3.10
2018-02-20T02:08:27.480Z,3.10
2018-02-20T02:10:56.484Z,3.10
2018-02-20T02:13:24.974Z,3.00
2018-02-20T02:15:54.723Z,3.00
2018-02-20T02:18:22.952Z,3.00
2018-02-20T02:23:22.412Z,3.00
2018-02-20T02:25:51.404Z,3.00
2018-02-20T02:28:21.483Z,2.90
2018-02-20T02:30:50.856Z,2.90
2018-02-20T02:33:19.076Z,2.90
2018-02-20T02:35:50.467Z,2.90
2018-02-20T02:38:19.101Z,2.90
2018-02-20T02:40:48.096Z,2.90
2018-02-20T02:43:20.828Z,2.90
2018-02-20T02:45:49.452Z,2.90
2018-02-20T02:48:17.685Z,2.80
2018-02-20T02:50:46.449Z,2.80
2018-02-20T02:55:44.137Z,2.80
2018-02-20T03:00:48.169Z,2.80
2018-02-20T03:03:17.152Z,2.70
2018-02-20T03:05:46.892Z,2.70
2018-02-20T03:08:16.340Z,2.70
2018-02-20T03:10:45.336Z,2.70
2018-02-20T03:13:13.571Z,2.70
2018-02-20T03:15:42.616Z,2.70
2018-02-20T03:18:10.860Z,2.70
2018-02-20T03:20:39.113Z,2.70
2018-02-20T03:23:07.542Z,2.70
2018-02-20T03:25:35.825Z,2.70
2018-02-20T03:28:04.052Z,2.70
2018-02-20T03:30:32.413Z,2.70
2018-02-20T03:33:01.408Z,2.70
2018-02-20T03:35:30.408Z,2.60
2018-02-20T03:40:35.124Z,2.60
2018-02-20T03:45:35.510Z,2.60
2018-02-20T03:55:38.559Z,2.60
2018-02-20T03:58:07.381Z,2.60
2018-02-20T04:00:36.751Z,2.60
2018-02-20T04:03:04.975Z,2.50
2018-02-20T04:08:04.088Z,2.50
2018-02-20T04:10:33.099Z,2.50
2018-02-20T04:13:02.304Z,2.50
2018-02-20T04:15:31.300Z,2.50
2018-02-20T04:17:59.532Z,2.50
2018-02-20T04:20:28.036Z,2.50
2018-02-20T04:22:57.772Z,2.50
2018-02-20T04:25:26.785Z,2.50
2018-02-20T04:27:56.627Z,2.40
2018-02-20T04:32:54.338Z,2.40
2018-02-20T04:35:23.064Z,2.30
2018-02-20T04:37:52.431Z,2.30
2018-02-20T04:40:21.056Z,2.30
2018-02-20T04:42:50.428Z,2.30
2018-02-20T04:45:19.428Z,2.30
2018-02-20T04:47:49.433Z,2.30
2018-02-20T04:50:17.802Z,2.20
2018-02-20T04:52:47.536Z,2.20
2018-02-20T04:55:17.268Z,2.20
2018-02-20T04:57:46.356Z,2.20
2018-02-20T05:00:15.344Z,2.20
2018-02-20T05:02:43.567Z,2.30
2018-02-20T05:05:12.012Z,2.20
2018-02-20T05:07:41.759Z,2.20
2018-02-20T05:10:09.992Z,2.20
2018-02-20T05:12:38.586Z,2.20
2018-02-20T05:15:06.848Z,2.20
2018-02-20T05:17:36.223Z,2.10
2018-02-20T05:20:05.328Z,2.10
2018-02-20T05:22:34.323Z,2.00
2018-02-20T05:25:03.326Z,2.00
2018-02-20T05:27:31.705Z,2.00
2018-02-20T05:30:00.731Z,2.00
2018-02-20T05:32:28.928Z,2.00
2018-02-20T05:34:57.492Z,2.00
2018-02-20T05:37:25.737Z,2.00
2018-02-20T05:39:53.960Z,1.90
2018-02-20T05:42:24.132Z,1.90
2018-02-20T05:44:53.492Z,1.90
2018-02-20T05:47:21.725Z,1.90
2018-02-20T05:49:50.779Z,1.80
2018-02-20T05:52:19.775Z,1.90
2018-02-20T05:57:18.044Z,1.80
2018-02-20T05:59:47.968Z,1.80
2018-02-20T06:02:16.960Z,1.80
2018-02-20T06:07:16.464Z,1.80
2018-02-20T06:09:45.460Z,1.80
2018-02-20T06:12:15.352Z,1.80
2018-02-20T06:14:43.588Z,1.80
2018-02-20T06:17:11.933Z,1.80
2018-02-20T06:19:41.073Z,1.80
2018-02-20T06:22:09.321Z,1.80
2018-02-20T06:24:37.567Z,1.80
2018-02-20T06:27:07.822Z,1.80
2018-02-20T06:29:36.073Z,1.80
2018-02-20T06:32:04.464Z,1.80
2018-02-20T06:34:34.552Z,1.80
2018-02-20T06:37:03.921Z,1.80
2018-02-20T06:39:32.148Z,1.80
2018-02-20T06:42:00.791Z,1.80
2018-02-20T06:44:30.160Z,1.80
2018-02-20T06:46:58.384Z,1.80
2018-02-20T06:49:26.937Z,1.80
2018-02-20T06:54:24.873Z,1.80
2018-02-20T06:56:54.749Z,1.80
2018-02-20T06:59:22.976Z,1.90
2018-02-20T07:01:51.601Z,1.90
2018-02-20T07:04:20.038Z,1.90
2018-02-20T07:06:49.028Z,2.00
2018-02-20T07:09:18.021Z,2.00
2018-02-20T07:11:47.348Z,2.00
2018-02-20T07:14:15.576Z,2.10
2018-02-20T07:19:14.548Z,2.20
2018-02-20T07:21:43.915Z,2.30
2018-02-20T07:24:12.152Z,2.40
2018-02-20T07:26:42.120Z,2.50
2018-02-20T07:29:11.864Z,2.50
2018-02-20T07:31:40.105Z,2.60
2018-02-20T07:39:12.540Z,2.80
2018-02-20T07:41:41.552Z,2.80
2018-02-20T07:44:11.303Z,2.90
2018-02-20T07:46:39.546Z,3.00
2018-02-20T07:49:07.790Z,3.00
2018-02-20T07:51:37.436Z,3.10
2018-02-20T07:54:05.900Z,3.20
2018-02-20T07:56:34.123Z,3.20
2018-02-20T07:59:04.016Z,3.40
2018-02-20T08:01:32.247Z,3.50
2018-02-20T08:04:00.476Z,3.50
2018-02-20T08:06:29.700Z,3.60
2018-02-20T08:08:58.332Z,3.70
2018-02-20T08:11:26.572Z,3.80
2018-02-20T08:13:56.560Z,3.90
2018-02-20T08:16:24.787Z,4.10
2018-02-20T08:18:53.024Z,4.30
2018-02-20T08:21:21.459Z,4.60
2018-02-20T08:23:50.472Z,5.00
2018-02-20T08:26:19.468Z,5.40
2018-02-20T08:28:48.208Z,5.90
2018-02-20T08:31:16.831Z,6.60
2018-02-20T08:33:45.061Z,7.40
2018-02-20T08:36:14.388Z,8.30
2018-02-20T08:38:43.392Z,9.40
2018-02-20T08:41:11.635Z,10.50
2018-02-20T08:43:40.501Z,11.70
2018-02-20T08:46:09.520Z,12.90
2018-02-20T08:48:37.781Z,13.90
2018-02-20T08:51:07.145Z,14.90
2018-02-20T08:53:35.768Z,15.70
2018-02-20T08:56:04.279Z,16.40
2018-02-20T08:58:32.779Z,16.90
2018-02-20T09:01:01.014Z,17.60
2018-02-20T09:03:29.240Z,18.20
2018-02-20T09:05:59.823Z,18.90
2018-02-20T09:08:28.453Z,19.50
2018-02-20T09:10:56.704Z,19.90
2018-02-20T09:13:28.731Z,20.20
2018-02-20T09:15:56.987Z,20.60
2018-02-20T09:18:25.239Z,20.90
2018-02-20T09:20:54.687Z,21.40
2018-02-20T09:23:23.312Z,21.80
2018-02-20T09:25:51.547Z,22.20
2018-02-20T09:28:21.444Z,22.60
2018-02-20T09:30:49.676Z,22.90
2018-02-20T09:35:47.926Z,23.80
2018-02-20T09:38:16.924Z,24.20
2018-02-20T09:40:46.730Z,24.60
2018-02-20T09:43:15.554Z,25.00
2018-02-20T09:45:44.175Z,25.50
2018-02-20T09:48:13.172Z,25.80
2018-02-20T09:50:42.880Z,25.90
2018-02-20T09:53:11.521Z,26.50
2018-02-20T09:55:40.539Z,26.80
2018-02-20T10:00:38.763Z,27.40
2018-02-20T10:03:06.998Z,27.70
2018-02-20T10:05:35.444Z,27.90
2018-02-20T10:08:04.448Z,28.10
2018-02-20T10:10:33.448Z,28.40
2018-02-20T10:13:01.948Z,28.60
2018-02-20T10:15:31.693Z,28.80
2018-02-20T10:17:59.926Z,28.90
2018-02-20T10:20:29.868Z,29.20
2018-02-20T10:22:58.870Z,29.30
2018-02-20T10:25:27.880Z,29.30
2018-02-20T10:27:56.831Z,29.20
2018-02-20T10:30:25.076Z,29.00
2018-02-20T10:32:53.304Z,28.70
2018-02-20T10:35:22.547Z,28.50
2018-02-20T10:37:51.548Z,28.20
2018-02-20T10:40:20.548Z,27.60
2018-02-20T10:42:49.812Z,27.40
2018-02-20T10:45:18.811Z,27.50
2018-02-20T10:47:47.043Z,27.50
2018-02-20T10:50:16.152Z,27.70
2018-02-20T10:52:45.148Z,27.90
2018-02-20T10:55:13.379Z,27.80
2018-02-20T10:57:41.885Z,27.90
2018-02-20T11:00:10.436Z,27.90
2018-02-20T11:02:38.715Z,28.10
2018-02-20T11:05:07.823Z,28.10
2018-02-20T11:07:36.062Z,27.90
2018-02-20T11:10:04.287Z,28.00
2018-02-20T11:12:32.673Z,28.00
2018-02-20T11:15:00.904Z,28.10
2018-02-20T11:17:29.904Z,27.90
2018-02-20T11:19:59.156Z,27.00
2018-02-20T11:22:28.163Z,26.70
2018-02-20T11:24:57.175Z,26.80
2018-02-20T11:27:25.817Z,26.80
2018-02-20T11:30:02.420Z,27.50
2018-02-20T11:32:31.421Z,27.70
2018-02-20T11:34:59.673Z,27.90
2018-02-20T11:37:27.925Z,28.60
2018-02-20T11:39:57.064Z,29.50
2018-02-20T11:42:25.300Z,30.30
2018-02-20T11:44:53.531Z,30.90
2018-02-20T11:47:24.596Z,30.80
2018-02-20T11:52:22.293Z,28.30
2018-02-20T11:54:52.756Z,27.00
2018-02-20T11:57:20.990Z,26.30
2018-02-20T11:59:49.220Z,25.70
2018-02-20T12:04:55.725Z,25.00
2018-02-20T12:07:24.722Z,24.80
2018-02-20T12:09:52.956Z,24.40
2018-02-20T12:12:21.574Z,24.40
2018-02-20T12:17:20.003Z,24.60
2018-02-20T12:19:49.632Z,24.40
2018-02-20T12:22:17.863Z,24.40
2018-02-20T12:24:47.237Z,24.80
2018-02-20T12:27:16.824Z,24.70
2018-02-20T12:29:45.843Z,24.50
2018-02-20T12:32:14.073Z,23.90
2018-02-20T12:34:42.621Z,23.30
2018-02-20T12:39:40.320Z,21.70
2018-02-20T12:42:08.860Z,21.00
2018-02-20T12:47:06.552Z,19.50
2018-02-20T12:49:36.736Z,18.80
2018-02-20T12:52:06.476Z,18.10
2018-02-20T12:54:34.722Z,17.50
2018-02-20T12:57:03.296Z,17.10
2018-02-20T12:59:31.540Z,16.80
2018-02-20T13:01:59.787Z,16.50
2018-02-20T13:04:30.146Z,16.40
2018-02-20T13:06:59.159Z,16.30
2018-02-20T13:09:28.177Z,16.30
2018-02-20T13:14:27.588Z,16.40
2018-02-20T13:16:56.545Z,16.30
2018-02-20T13:19:24.965Z,16.10
2018-02-20T13:21:53.964Z,16.00
2018-02-20T13:24:22.192Z,15.90
2018-02-20T13:26:50.796Z,15.70
2018-02-20T13:29:20.172Z,15.60
2018-02-20T13:31:48.400Z,15.70
2018-02-20T13:34:17.244Z,15.90
2018-02-20T13:36:46.616Z,16.10
2018-02-20T13:39:14.849Z,16.30
2018-02-20T13:41:43.384Z,16.30
2018-02-20T13:44:11.615Z,15.90
2018-02-20T13:46:39.844Z,15.60
2018-02-20T13:49:08.224Z,15.10
2018-02-20T13:51:37.231Z,14.80
2018-02-20T13:54:05.467Z,14.50
2018-02-20T13:56:34.752Z,14.20
2018-02-20T13:59:03.767Z,13.90
2018-02-20T14:01:32.005Z,13.70
2018-02-20T14:06:31.965Z,13.40
2018-02-20T14:09:00.970Z,13.10
2018-02-20T14:13:59.273Z,13.10
2018-02-20T14:16:28.294Z,13.10
2018-02-20T14:18:56.744Z,13.10
2018-02-20T14:21:24.980Z,13.10
2018-02-20T14:23:53.216Z,12.90
2018-02-20T14:26:22.558Z,13.00
2018-02-20T14:28:51.561Z,13.00
2018-02-20T14:31:19.792Z,13.10
2018-02-20T14:33:49.108Z,13.10
2018-02-20T14:36:17.345Z,13.00
2018-02-20T14:38:45.576Z,12.90
2018-02-20T14:41:14.538Z,12.80
2018-02-20T14:43:43.536Z,12.70
2018-02-20T14:46:12.542Z,12.70
2018-02-20T14:48:41.997Z,12.70
2018-02-20T14:51:11.735Z,12.60
2018-02-20T14:53:39.972Z,12.50
2018-02-20T14:56:08.753Z,12.40
2018-02-20T15:01:06.500Z,12.30
2018-02-20T15:06:05.633Z,12.10
2018-02-20T15:08:34.936Z,11.80
2018-02-20T15:11:05.235Z,11.60
2018-02-20T15:13:33.496Z,11.30
2018-02-20T15:16:02.885Z,11.10
2018-02-20T15:18:31.581Z,10.90
2018-02-20T15:21:01.321Z,10.80
2018-02-20T15:23:29.571Z,10.60
2018-02-20T15:25:58.060Z,10.50
2018-02-20T15:28:26.317Z,10.40
2018-02-20T15:30:55.717Z,10.30
2018-02-20T15:33:24.353Z,10.30
2018-02-20T15:35:54.101Z,10.30
2018-02-20T15:38:22.340Z,10.30
2018-02-20T15:40:50.912Z,10.30
2018-02-20T15:45:48.620Z,10.10
2018-02-20T15:48:17.169Z,10.10
2018-02-20T15:50:45.405Z,10.00
2018-02-20T15:55:43.176Z,9.80
2018-02-20T16:00:41.256Z,9.70
2018-02-20T16:03:10.564Z,9.60
2018-02-20T16:05:39.188Z,9.50
2018-02-20T16:08:07.420Z,9.40
2018-02-20T16:10:42.886Z,9.40
2018-02-20T16:13:11.513Z,9.20
2018-02-20T16:15:40.528Z,9.10
2018-02-20T16:20:38.688Z,9.00
2018-02-20T16:23:06.920Z,8.90
2018-02-20T16:28:10.328Z,8.80
2018-02-20T16:33:08.420Z,8.60
2018-02-20T16:35:36.794Z,8.60
2018-02-20T16:38:05.041Z,8.50
2018-02-20T16:40:33.275Z,8.40
2018-02-20T16:43:02.142Z,8.30
2018-02-20T16:45:31.882Z,8.20
2018-02-20T16:48:00.126Z,8.10
2018-02-20T16:52:59.577Z,8.00
2018-02-20T16:57:57.948Z,7.90
2018-02-20T17:00:26.188Z,7.80
2018-02-20T17:02:54.421Z,7.70
2018-02-20T17:05:24.264Z,7.60
2018-02-20T17:07:54.004Z,7.60
2018-02-20T17:10:22.236Z,7.50
2018-02-20T17:12:52.352Z,7.50
2018-02-20T17:15:21.337Z,7.40
2018-02-20T17:17:49.573Z,7.40
2018-02-20T17:20:20.119Z,7.30
2018-02-20T17:22:49.117Z,7.20
2018-02-20T17:25:17.344Z,7.20
2018-02-20T17:27:45.850Z,7.10
2018-02-20T17:30:15.216Z,7.00
2018-02-20T17:32:43.482Z,7.00
2018-02-20T17:35:11.997Z,6.90
2018-02-20T17:37:41.365Z,6.80
2018-02-20T17:40:09.588Z,6.70
2018-02-20T17:42:39.877Z,6.70
2018-02-20T17:45:08.877Z,6.60
2018-02-20T17:47:37.109Z,6.60
2018-02-20T17:50:05.628Z,6.50
2018-02-20T17:52:33.864Z,6.60
2018-02-20T17:55:02.121Z,6.50
2018-02-20T17:57:30.616Z,6.50
2018-02-20T17:59:58.864Z,6.50
2018-02-20T18:02:27.808Z,6.40
2018-02-20T18:04:58.208Z,6.40
2018-02-20T18:07:27.583Z,6.40
2018-02-20T18:09:55.818Z,6.30
2018-02-20T18:12:25.645Z,6.30
2018-02-20T18:14:55.521Z,6.30
2018-02-20T18:17:23.744Z,6.20
2018-02-20T18:19:52.292Z,6.20
2018-02-20T18:22:21.292Z,6.20
2018-02-20T18:24:49.524Z,6.20
2018-02-20T18:27:17.831Z,6.10
2018-02-20T18:29:46.077Z,6.10
2018-02-20T18:32:14.314Z,6.10
2018-02-20T18:34:44.252Z,6.00
2018-02-20T18:37:12.876Z,6.00
2018-02-20T18:39:41.119Z,6.00
2018-02-20T18:42:10.053Z,6.00
2018-02-20T18:44:38.296Z,6.00
2018-02-20T18:47:07.289Z,5.90
2018-02-20T18:49:37.040Z,5.90
2018-02-20T18:52:06.777Z,5.80
2018-02-20T18:54:35.010Z,5.80
2018-02-20T18:57:04.340Z,5.80
2018-02-20T19:02:02.065Z,5.70
2018-02-20T19:04:31.689Z,5.70
2018-02-20T19:06:59.935Z,5.70
2018-02-20T19:09:28.586Z,5.70
2018-02-20T19:11:58.689Z,5.60
2018-02-20T19:14:27.700Z,5.50
2018-02-20T19:16:56.911Z,5.50
2018-02-20T19:19:26.100Z,5.50
2018-02-20T19:21:54.337Z,5.50
2018-02-20T19:24:22.568Z,5.50
2018-02-20T19:26:50.936Z,5.50
2018-02-20T19:29:19.175Z,5.50
2018-02-20T19:31:48.549Z,5.40
2018-02-20T19:34:17.960Z,5.40
2018-02-20T19:36:46.600Z,5.40
2018-02-20T19:39:14.851Z,5.40
2018-02-20T19:41:44.192Z,5.40
2018-02-20T19:44:13.189Z,5.40
2018-02-20T19:46:41.416Z,5.40
2018-02-20T19:49:10.684Z,5.30
2018-02-20T19:51:39.268Z,5.30
2018-02-20T19:54:08.268Z,5.20
2018-02-20T19:59:07.741Z,5.20
2018-02-20T20:04:06.581Z,5.20
2018-02-20T20:06:35.952Z,5.10
2018-02-20T20:09:04.193Z,5.10
2018-02-20T20:14:07.175Z,5.10
2018-02-20T20:16:35.409Z,5.10
2018-02-20T20:19:03.854Z,5.10
2018-02-20T20:21:33.949Z,5.00
2018-02-20T20:24:02.960Z,5.00
2018-02-20T20:26:31.212Z,5.00
2018-02-20T20:28:59.606Z,5.00
2018-02-20T20:31:27.866Z,5.00
2018-02-20T20:33:56.153Z,5.00
2018-02-20T20:36:24.621Z,5.00
2018-02-20T20:38:54.360Z,4.90
2018-02-20T20:41:22.608Z,4.90
2018-02-20T20:43:51.933Z,4.90
2018-02-20T20:46:20.184Z,4.90
2018-02-20T20:48:48.426Z,4.80
2018-02-20T20:53:53.020Z,4.80
2018-02-20T20:58:50.725Z,4.80
2018-02-20T21:01:20.630Z,4.80
2018-02-20T21:03:48.864Z,4.70
2018-02-20T21:06:17.516Z,4.80
2018-02-20T21:08:46.660Z,4.70
2018-02-20T21:11:16.034Z,4.70
2018-02-20T21:13:45.040Z,4.70
2018-02-20T21:16:13.694Z,4.60
2018-02-20T21:18:41.920Z,4.70
2018-02-20T21:21:12.272Z,4.60
2018-02-20T21:23:41.524Z,4.60
2018-02-20T21:26:09.767Z,4.60
2018-02-20T21:28:37.996Z,4.60
2018-02-20T21:31:06.372Z,4.50
2018-02-20T21:33:34.656Z,4.50
2018-02-20T21:36:02.853Z,4.50
2018-02-20T21:38:32.916Z,4.50
2018-02-20T21:41:01.161Z,4.50
2018-02-20T21:43:29.430Z,4.40
2018-02-20T21:45:58.948Z,4.40
2018-02-20T21:48:27.197Z,4.40
2018-02-20T21:50:55.428Z,4.30
2018-02-20T21:53:24.957Z,4.30
2018-02-20T21:55:53.961Z,4.30
2018-02-20T22:00:52.141Z,4.30
2018-02-20T22:03:21.141Z,4.20
2018-02-20T22:05:50.348Z,4.20
2018-02-20T22:08:19.792Z,4.20
2018-02-20T22:10:49.528Z,4.10
2018-02-20T22:13:17.768Z,4.10
2018-02-20T22:15:46.323Z,4.10
2018-02-20T22:18:14.558Z,4.10
2018-02-20T22:20:42.795Z,4.10
2018-02-20T22:23:12.388Z,4.10
2018-02-20T22:28:11.220Z,4.00
2018-02-20T22:30:39.632Z,4.10
2018-02-20T22:33:08.632Z,4.00
2018-02-20T22:38:07.430Z,4.00
2018-02-20T22:40:37.173Z,3.90
2018-02-20T22:43:05.406Z,3.90
2018-02-20T22:45:34.268Z,3.90
2018-02-20T22:48:03.265Z,3.90
2018-02-20T22:50:31.509Z,3.80
2018-02-20T22:53:00.219Z,3.80
2018-02-20T22:55:28.462Z,3.80
2018-02-20T22:57:57.853Z,3.80
2018-02-20T23:00:26.365Z,3.80
2018-02-20T23:05:24.052Z,3.70
2018-02-20T23:07:52.575Z,3.70
2018-02-20T23:10:22.317Z,3.70
2018-02-20T23:15:21.294Z,3.60
2018-02-20T23:17:49.519Z,3.60
2018-02-20T23:20:17.759Z,3.60
2018-02-20T23:22:47.844Z,3.50
2018-02-20T23:25:18.929Z,3.60
2018-02-20T23:27:47.195Z,3.50
2018-02-20T23:30:16.748Z,3.50
2018-02-20T23:32:45.384Z,3.50
2018-02-20T23:35:13.617Z,3.40
2018-02-20T23:40:16.608Z,3.40
2018-02-20T23:42:45.621Z,3.40
2018-02-20T23:47:44.483Z,3.40
2018-02-20T23:52:42.172Z,3.30
2018-02-20T23:55:12.352Z,3.30
2018-02-20T23:57:41.344Z,3.20
